sensor_id;sensor_type;location;lat;lon;timestamp;P1;durP1;ratioP1;P2;durP2;ratioP2
51248;SDS011;39642;47.556;18.728;2024-01-27T00:00:18;13.35;;;5.15;;
51248;SDS011;39642;47.556;18.728;2024-01-27T00:02:44;12.80;;;5.22;;
51248;SDS011;39642;47.556;18.728;2024-01-27T00:05:10;14.50;;;5.60;;
51248;SDS011;39642;47.556;18.728;2024-01-27T00:07:36;13.18;;;5.03;;
51248;SDS011;39642;47.556;18.728;2024-01-27T00:10:02;11.68;;;4.87;;
51248;SDS011;39642;47.556;18.728;2024-01-27T00:12:28;13.27;;;5.22;;
51248;SDS011;39642;47.556;18.728;2024-01-27T00:14:54;11.68;;;4.57;;
51248;SDS011;39642;47.556;18.728;2024-01-27T00:17:20;12.32;;;4.57;;
51248;SDS011;39642;47.556;18.728;2024-01-27T00:19:49;12.15;;;5.03;;
51248;SDS011;39642;47.556;18.728;2024-01-27T00:22:15;12.65;;;4.87;;
51248;SDS011;39642;47.556;18.728;2024-01-27T00:24:42;11.57;;;4.57;;
51248;SDS011;39642;47.556;18.728;2024-01-27T00:27:08;13.05;;;5.20;;
51248;SDS011;39642;47.556;18.728;2024-01-27T00:29:34;12.07;;;4.40;;
51248;SDS011;39642;47.556;18.728;2024-01-27T00:32:00;11.98;;;4.72;;
51248;SDS011;39642;47.556;18.728;2024-01-27T00:34:26;11.38;;;4.50;;
51248;SDS011;39642;47.556;18.728;2024-01-27T00:36:52;13.10;;;4.62;;
51248;SDS011;39642;47.556;18.728;2024-01-27T00:39:18;9.90;;;3.85;;
51248;SDS011;39642;47.556;18.728;2024-01-27T00:41:44;12.48;;;4.30;;
51248;SDS011;39642;47.556;18.728;2024-01-27T00:44:10;10.43;;;3.80;;
51248;SDS011;39642;47.556;18.728;2024-01-27T00:46:36;10.63;;;3.62;;
51248;SDS011;39642;47.556;18.728;2024-01-27T00:49:03;10.70;;;3.80;;
51248;SDS011;39642;47.556;18.728;2024-01-27T00:51:29;9.60;;;3.80;;
51248;SDS011;39642;47.556;18.728;2024-01-27T00:53:55;11.68;;;3.55;;
51248;SDS011;39642;47.556;18.728;2024-01-27T00:56:20;11.00;;;3.85;;
51248;SDS011;39642;47.556;18.728;2024-01-27T00:58:46;10.05;;;3.70;;
51248;SDS011;39642;47.556;18.728;2024-01-27T01:01:12;9.73;;;3.67;;
51248;SDS011;39642;47.556;18.728;2024-01-27T01:03:38;11.75;;;3.62;;
51248;SDS011;39642;47.556;18.728;2024-01-27T01:06:04;11.25;;;3.60;;
51248;SDS011;39642;47.556;18.728;2024-01-27T01:08:31;9.93;;;3.60;;
51248;SDS011;39642;47.556;18.728;2024-01-27T01:10:57;9.88;;;3.45;;
51248;SDS011;39642;47.556;18.728;2024-01-27T01:13:23;10.50;;;3.50;;
51248;SDS011;39642;47.556;18.728;2024-01-27T01:15:49;9.15;;;3.15;;
51248;SDS011;39642;47.556;18.728;2024-01-27T01:18:15;9.18;;;3.20;;
51248;SDS011;39642;47.556;18.728;2024-01-27T01:20:41;9.90;;;3.40;;
51248;SDS011;39642;47.556;18.728;2024-01-27T01:23:07;11.40;;;3.35;;
51248;SDS011;39642;47.556;18.728;2024-01-27T01:25:33;10.65;;;3.22;;
51248;SDS011;39642;47.556;18.728;2024-01-27T01:27:59;9.18;;;3.10;;
51248;SDS011;39642;47.556;18.728;2024-01-27T01:30:24;9.90;;;3.30;;
51248;SDS011;39642;47.556;18.728;2024-01-27T01:32:50;9.93;;;3.15;;
51248;SDS011;39642;47.556;18.728;2024-01-27T01:35:17;9.57;;;2.78;;
51248;SDS011;39642;47.556;18.728;2024-01-27T01:37:43;9.23;;;2.92;;
51248;SDS011;39642;47.556;18.728;2024-01-27T01:40:09;9.23;;;3.22;;
51248;SDS011;39642;47.556;18.728;2024-01-27T01:42:35;9.55;;;3.25;;
51248;SDS011;39642;47.556;18.728;2024-01-27T01:45:01;9.05;;;2.92;;
51248;SDS011;39642;47.556;18.728;2024-01-27T01:47:26;8.70;;;2.83;;
51248;SDS011;39642;47.556;18.728;2024-01-27T01:49:53;9.00;;;2.92;;
51248;SDS011;39642;47.556;18.728;2024-01-27T01:52:21;8.60;;;2.78;;
51248;SDS011;39642;47.556;18.728;2024-01-27T01:54:50;9.15;;;3.08;;
51248;SDS011;39642;47.556;18.728;2024-01-27T01:57:16;8.80;;;2.90;;
51248;SDS011;39642;47.556;18.728;2024-01-27T01:59:43;9.15;;;2.85;;
51248;SDS011;39642;47.556;18.728;2024-01-27T02:02:09;9.50;;;2.80;;
51248;SDS011;39642;47.556;18.728;2024-01-27T02:07:07;9.90;;;3.23;;
51248;SDS011;39642;47.556;18.728;2024-01-27T02:09:33;8.98;;;2.90;;
51248;SDS011;39642;47.556;18.728;2024-01-27T02:11:59;8.98;;;2.90;;
51248;SDS011;39642;47.556;18.728;2024-01-27T02:14:25;8.68;;;2.72;;
51248;SDS011;39642;47.556;18.728;2024-01-27T02:16:56;8.38;;;2.70;;
51248;SDS011;39642;47.556;18.728;2024-01-27T02:19:22;8.88;;;2.92;;
51248;SDS011;39642;47.556;18.728;2024-01-27T02:21:48;8.85;;;2.72;;
51248;SDS011;39642;47.556;18.728;2024-01-27T02:24:14;8.23;;;2.67;;
51248;SDS011;39642;47.556;18.728;2024-01-27T02:26:40;8.77;;;2.60;;
51248;SDS011;39642;47.556;18.728;2024-01-27T02:29:06;8.63;;;2.78;;
51248;SDS011;39642;47.556;18.728;2024-01-27T02:31:32;8.10;;;2.70;;
51248;SDS011;39642;47.556;18.728;2024-01-27T02:33:58;8.30;;;2.55;;
51248;SDS011;39642;47.556;18.728;2024-01-27T02:36:23;7.95;;;2.30;;
51248;SDS011;39642;47.556;18.728;2024-01-27T02:38:49;8.23;;;2.40;;
51248;SDS011;39642;47.556;18.728;2024-01-27T02:41:15;6.93;;;2.10;;
51248;SDS011;39642;47.556;18.728;2024-01-27T02:43:41;7.93;;;2.50;;
51248;SDS011;39642;47.556;18.728;2024-01-27T02:46:09;8.05;;;2.53;;
51248;SDS011;39642;47.556;18.728;2024-01-27T02:48:40;8.73;;;2.53;;
51248;SDS011;39642;47.556;18.728;2024-01-27T02:51:08;9.05;;;2.60;;
51248;SDS011;39642;47.556;18.728;2024-01-27T02:53:35;7.47;;;2.30;;
51248;SDS011;39642;47.556;18.728;2024-01-27T02:56:01;7.50;;;2.40;;
51248;SDS011;39642;47.556;18.728;2024-01-27T02:58:27;7.82;;;2.30;;
51248;SDS011;39642;47.556;18.728;2024-01-27T03:00:53;8.15;;;2.37;;
51248;SDS011;39642;47.556;18.728;2024-01-27T03:03:19;8.15;;;2.40;;
51248;SDS011;39642;47.556;18.728;2024-01-27T03:05:45;7.28;;;2.25;;
51248;SDS011;39642;47.556;18.728;2024-01-27T03:08:11;7.22;;;2.15;;
51248;SDS011;39642;47.556;18.728;2024-01-27T03:10:37;6.47;;;1.98;;
51248;SDS011;39642;47.556;18.728;2024-01-27T03:13:03;7.43;;;2.30;;
51248;SDS011;39642;47.556;18.728;2024-01-27T03:15:29;7.10;;;2.20;;
51248;SDS011;39642;47.556;18.728;2024-01-27T03:17:54;7.37;;;2.35;;
51248;SDS011;39642;47.556;18.728;2024-01-27T03:20:21;5.82;;;1.83;;
51248;SDS011;39642;47.556;18.728;2024-01-27T03:22:47;6.32;;;1.90;;
51248;SDS011;39642;47.556;18.728;2024-01-27T03:25:13;7.40;;;2.20;;
51248;SDS011;39642;47.556;18.728;2024-01-27T03:27:39;7.97;;;2.10;;
51248;SDS011;39642;47.556;18.728;2024-01-27T03:30:05;7.60;;;2.30;;
51248;SDS011;39642;47.556;18.728;2024-01-27T03:32:33;7.37;;;2.17;;
51248;SDS011;39642;47.556;18.728;2024-01-27T03:34:59;8.48;;;2.30;;
51248;SDS011;39642;47.556;18.728;2024-01-27T03:37:25;6.55;;;1.95;;
51248;SDS011;39642;47.556;18.728;2024-01-27T03:39:51;7.35;;;2.08;;
51248;SDS011;39642;47.556;18.728;2024-01-27T03:42:17;7.70;;;2.20;;
51248;SDS011;39642;47.556;18.728;2024-01-27T03:44:43;6.95;;;2.00;;
51248;SDS011;39642;47.556;18.728;2024-01-27T03:47:09;6.12;;;1.92;;
51248;SDS011;39642;47.556;18.728;2024-01-27T03:49:35;7.28;;;2.03;;
51248;SDS011;39642;47.556;18.728;2024-01-27T03:52:00;6.85;;;1.90;;
51248;SDS011;39642;47.556;18.728;2024-01-27T03:54:26;7.85;;;2.17;;
51248;SDS011;39642;47.556;18.728;2024-01-27T03:56:52;6.37;;;1.90;;
51248;SDS011;39642;47.556;18.728;2024-01-27T03:59:19;7.65;;;2.00;;
51248;SDS011;39642;47.556;18.728;2024-01-27T04:01:45;6.25;;;1.80;;
51248;SDS011;39642;47.556;18.728;2024-01-27T04:04:11;5.82;;;1.98;;
51248;SDS011;39642;47.556;18.728;2024-01-27T04:06:37;6.75;;;1.90;;
51248;SDS011;39642;47.556;18.728;2024-01-27T04:09:04;7.22;;;2.00;;
51248;SDS011;39642;47.556;18.728;2024-01-27T04:11:34;6.65;;;1.80;;
51248;SDS011;39642;47.556;18.728;2024-01-27T04:14:00;6.28;;;1.80;;
51248;SDS011;39642;47.556;18.728;2024-01-27T04:16:27;5.25;;;1.70;;
51248;SDS011;39642;47.556;18.728;2024-01-27T04:18:53;5.85;;;1.70;;
51248;SDS011;39642;47.556;18.728;2024-01-27T04:21:19;6.70;;;1.98;;
51248;SDS011;39642;47.556;18.728;2024-01-27T04:23:45;6.82;;;1.92;;
51248;SDS011;39642;47.556;18.728;2024-01-27T04:26:11;5.57;;;1.70;;
51248;SDS011;39642;47.556;18.728;2024-01-27T04:28:37;6.43;;;1.90;;
51248;SDS011;39642;47.556;18.728;2024-01-27T04:31:03;5.78;;;1.70;;
51248;SDS011;39642;47.556;18.728;2024-01-27T04:33:29;7.00;;;1.90;;
51248;SDS011;39642;47.556;18.728;2024-01-27T04:35:55;6.20;;;1.85;;
51248;SDS011;39642;47.556;18.728;2024-01-27T04:38:21;5.78;;;1.85;;
51248;SDS011;39642;47.556;18.728;2024-01-27T04:40:48;7.18;;;1.90;;
51248;SDS011;39642;47.556;18.728;2024-01-27T04:43:14;5.22;;;1.60;;
51248;SDS011;39642;47.556;18.728;2024-01-27T04:45:42;6.30;;;1.73;;
51248;SDS011;39642;47.556;18.728;2024-01-27T04:48:08;7.50;;;1.95;;
51248;SDS011;39642;47.556;18.728;2024-01-27T04:50:34;6.43;;;1.87;;
51248;SDS011;39642;47.556;18.728;2024-01-27T04:53:00;5.50;;;1.73;;
51248;SDS011;39642;47.556;18.728;2024-01-27T04:55:26;6.57;;;1.80;;
51248;SDS011;39642;47.556;18.728;2024-01-27T04:57:52;6.87;;;1.90;;
51248;SDS011;39642;47.556;18.728;2024-01-27T05:00:19;5.97;;;1.98;;
51248;SDS011;39642;47.556;18.728;2024-01-27T05:02:45;5.68;;;1.80;;
51248;SDS011;39642;47.556;18.728;2024-01-27T05:05:11;6.82;;;1.90;;
51248;SDS011;39642;47.556;18.728;2024-01-27T05:07:37;7.22;;;1.70;;
51248;SDS011;39642;47.556;18.728;2024-01-27T05:10:04;5.68;;;1.70;;
51248;SDS011;39642;47.556;18.728;2024-01-27T05:12:30;6.32;;;1.75;;
51248;SDS011;39642;47.556;18.728;2024-01-27T05:14:56;5.62;;;1.60;;
51248;SDS011;39642;47.556;18.728;2024-01-27T05:17:22;6.65;;;1.73;;
51248;SDS011;39642;47.556;18.728;2024-01-27T05:19:49;4.43;;;1.50;;
51248;SDS011;39642;47.556;18.728;2024-01-27T05:22:15;5.55;;;1.60;;
51248;SDS011;39642;47.556;18.728;2024-01-27T05:24:41;6.00;;;1.80;;
51248;SDS011;39642;47.556;18.728;2024-01-27T05:27:07;5.97;;;1.70;;
51248;SDS011;39642;47.556;18.728;2024-01-27T05:29:33;5.62;;;1.70;;
51248;SDS011;39642;47.556;18.728;2024-01-27T05:31:59;5.75;;;1.60;;
51248;SDS011;39642;47.556;18.728;2024-01-27T05:34:25;6.35;;;1.80;;
51248;SDS011;39642;47.556;18.728;2024-01-27T05:36:50;5.70;;;1.52;;
51248;SDS011;39642;47.556;18.728;2024-01-27T05:39:16;5.60;;;1.58;;
51248;SDS011;39642;47.556;18.728;2024-01-27T05:41:43;5.05;;;1.60;;
51248;SDS011;39642;47.556;18.728;2024-01-27T05:44:08;6.28;;;1.80;;
51248;SDS011;39642;47.556;18.728;2024-01-27T05:46:34;5.85;;;1.50;;
51248;SDS011;39642;47.556;18.728;2024-01-27T05:49:00;5.20;;;1.55;;
51248;SDS011;39642;47.556;18.728;2024-01-27T05:51:29;5.45;;;1.60;;
51248;SDS011;39642;47.556;18.728;2024-01-27T05:53:59;6.15;;;1.70;;
51248;SDS011;39642;47.556;18.728;2024-01-27T05:56:25;4.65;;;1.50;;
51248;SDS011;39642;47.556;18.728;2024-01-27T05:58:51;6.53;;;1.65;;
51248;SDS011;39642;47.556;18.728;2024-01-27T06:01:19;5.87;;;1.70;;
51248;SDS011;39642;47.556;18.728;2024-01-27T06:03:45;4.43;;;1.45;;
51248;SDS011;39642;47.556;18.728;2024-01-27T06:06:12;5.05;;;1.50;;
51248;SDS011;39642;47.556;18.728;2024-01-27T06:08:38;4.12;;;1.40;;
51248;SDS011;39642;47.556;18.728;2024-01-27T06:11:03;5.22;;;1.60;;
51248;SDS011;39642;47.556;18.728;2024-01-27T06:13:30;4.87;;;1.48;;
51248;SDS011;39642;47.556;18.728;2024-01-27T06:15:55;5.28;;;1.50;;
51248;SDS011;39642;47.556;18.728;2024-01-27T06:18:21;5.12;;;1.60;;
51248;SDS011;39642;47.556;18.728;2024-01-27T06:20:48;6.80;;;1.85;;
51248;SDS011;39642;47.556;18.728;2024-01-27T06:23:14;5.93;;;1.70;;
51248;SDS011;39642;47.556;18.728;2024-01-27T06:25:40;5.35;;;1.80;;
51248;SDS011;39642;47.556;18.728;2024-01-27T06:28:06;5.30;;;1.60;;
51248;SDS011;39642;47.556;18.728;2024-01-27T06:30:32;5.35;;;1.50;;
51248;SDS011;39642;47.556;18.728;2024-01-27T06:32:58;5.40;;;1.60;;
51248;SDS011;39642;47.556;18.728;2024-01-27T06:35:24;4.40;;;1.50;;
51248;SDS011;39642;47.556;18.728;2024-01-27T06:37:49;4.15;;;1.45;;
51248;SDS011;39642;47.556;18.728;2024-01-27T06:40:16;5.25;;;1.50;;
51248;SDS011;39642;47.556;18.728;2024-01-27T06:42:42;5.80;;;1.52;;
51248;SDS011;39642;47.556;18.728;2024-01-27T06:45:08;6.25;;;1.75;;
51248;SDS011;39642;47.556;18.728;2024-01-27T06:47:34;4.85;;;1.60;;
51248;SDS011;39642;47.556;18.728;2024-01-27T06:50:00;5.47;;;1.50;;
51248;SDS011;39642;47.556;18.728;2024-01-27T06:52:25;5.97;;;1.60;;
51248;SDS011;39642;47.556;18.728;2024-01-27T06:54:51;6.00;;;1.58;;
51248;SDS011;39642;47.556;18.728;2024-01-27T06:57:18;4.10;;;1.40;;
51248;SDS011;39642;47.556;18.728;2024-01-27T06:59:48;5.90;;;1.65;;
51248;SDS011;39642;47.556;18.728;2024-01-27T07:02:24;6.80;;;1.60;;
51248;SDS011;39642;47.556;18.728;2024-01-27T07:04:52;6.80;;;1.65;;
51248;SDS011;39642;47.556;18.728;2024-01-27T07:07:18;5.15;;;1.42;;
51248;SDS011;39642;47.556;18.728;2024-01-27T07:09:48;4.22;;;1.52;;
51248;SDS011;39642;47.556;18.728;2024-01-27T07:12:14;5.28;;;1.60;;
51248;SDS011;39642;47.556;18.728;2024-01-27T07:14:40;6.97;;;1.70;;
51248;SDS011;39642;47.556;18.728;2024-01-27T07:17:06;4.82;;;1.55;;
51248;SDS011;39642;47.556;18.728;2024-01-27T07:19:32;3.87;;;1.40;;
51248;SDS011;39642;47.556;18.728;2024-01-27T07:21:58;6.55;;;1.67;;
51248;SDS011;39642;47.556;18.728;2024-01-27T07:24:25;4.35;;;1.40;;
51248;SDS011;39642;47.556;18.728;2024-01-27T07:26:52;4.75;;;1.70;;
51248;SDS011;39642;47.556;18.728;2024-01-27T07:29:18;4.03;;;1.40;;
51248;SDS011;39642;47.556;18.728;2024-01-27T07:31:43;5.72;;;1.52;;
51248;SDS011;39642;47.556;18.728;2024-01-27T07:34:09;5.85;;;1.50;;
51248;SDS011;39642;47.556;18.728;2024-01-27T07:36:35;5.82;;;1.58;;
51248;SDS011;39642;47.556;18.728;2024-01-27T07:39:01;5.93;;;1.60;;
51248;SDS011;39642;47.556;18.728;2024-01-27T07:41:27;4.97;;;1.40;;
51248;SDS011;39642;47.556;18.728;2024-01-27T07:43:54;4.90;;;1.45;;
51248;SDS011;39642;47.556;18.728;2024-01-27T07:46:20;5.55;;;1.50;;
51248;SDS011;39642;47.556;18.728;2024-01-27T07:48:48;4.37;;;1.50;;
51248;SDS011;39642;47.556;18.728;2024-01-27T08:02:19;5.55;;;1.50;;
51248;SDS011;39642;47.556;18.728;2024-01-27T08:04:45;4.03;;;1.42;;
51248;SDS011;39642;47.556;18.728;2024-01-27T08:07:11;4.12;;;1.45;;
51248;SDS011;39642;47.556;18.728;2024-01-27T08:09:40;5.68;;;1.52;;
51248;SDS011;39642;47.556;18.728;2024-01-27T08:12:06;4.18;;;1.42;;
51248;SDS011;39642;47.556;18.728;2024-01-27T08:14:32;4.35;;;1.50;;
51248;SDS011;39642;47.556;18.728;2024-01-27T08:16:59;5.60;;;1.52;;
51248;SDS011;39642;47.556;18.728;2024-01-27T08:19:25;5.15;;;1.67;;
51248;SDS011;39642;47.556;18.728;2024-01-27T08:21:51;4.82;;;1.40;;
51248;SDS011;39642;47.556;18.728;2024-01-27T08:24:16;4.03;;;1.40;;
51248;SDS011;39642;47.556;18.728;2024-01-27T08:26:42;5.47;;;1.60;;
51248;SDS011;39642;47.556;18.728;2024-01-27T08:29:09;5.30;;;1.45;;
51248;SDS011;39642;47.556;18.728;2024-01-27T08:31:35;5.30;;;1.40;;
51248;SDS011;39642;47.556;18.728;2024-01-27T08:34:04;5.35;;;1.50;;
51248;SDS011;39642;47.556;18.728;2024-01-27T08:36:30;4.97;;;1.40;;
51248;SDS011;39642;47.556;18.728;2024-01-27T08:38:56;6.87;;;1.50;;
51248;SDS011;39642;47.556;18.728;2024-01-27T08:41:22;3.97;;;1.30;;
51248;SDS011;39642;47.556;18.728;2024-01-27T08:43:48;5.45;;;1.50;;
51248;SDS011;39642;47.556;18.728;2024-01-27T08:46:15;4.65;;;1.45;;
51248;SDS011;39642;47.556;18.728;2024-01-27T08:48:43;4.28;;;1.40;;
51248;SDS011;39642;47.556;18.728;2024-01-27T08:51:11;6.47;;;1.40;;
51248;SDS011;39642;47.556;18.728;2024-01-27T08:53:38;5.07;;;1.58;;
51248;SDS011;39642;47.556;18.728;2024-01-27T08:56:04;4.70;;;1.35;;
51248;SDS011;39642;47.556;18.728;2024-01-27T08:58:32;5.15;;;1.37;;
51248;SDS011;39642;47.556;18.728;2024-01-27T09:00:58;5.00;;;1.42;;
51248;SDS011;39642;47.556;18.728;2024-01-27T09:03:25;5.78;;;1.50;;
51248;SDS011;39642;47.556;18.728;2024-01-27T09:05:51;6.12;;;1.50;;
51248;SDS011;39642;47.556;18.728;2024-01-27T09:08:17;5.78;;;1.60;;
51248;SDS011;39642;47.556;18.728;2024-01-27T09:10:43;3.42;;;1.20;;
51248;SDS011;39642;47.556;18.728;2024-01-27T09:13:09;6.00;;;1.40;;
51248;SDS011;39642;47.556;18.728;2024-01-27T09:15:34;5.40;;;1.60;;
51248;SDS011;39642;47.556;18.728;2024-01-27T09:18:00;4.55;;;1.42;;
51248;SDS011;39642;47.556;18.728;2024-01-27T09:20:26;4.80;;;1.40;;
51248;SDS011;39642;47.556;18.728;2024-01-27T09:22:52;5.97;;;1.40;;
51248;SDS011;39642;47.556;18.728;2024-01-27T09:25:18;4.85;;;1.35;;
51248;SDS011;39642;47.556;18.728;2024-01-27T09:27:44;3.35;;;1.20;;
51248;SDS011;39642;47.556;18.728;2024-01-27T09:30:10;6.75;;;1.50;;
51248;SDS011;39642;47.556;18.728;2024-01-27T09:32:36;5.18;;;1.50;;
51248;SDS011;39642;47.556;18.728;2024-01-27T09:35:02;5.05;;;1.40;;
51248;SDS011;39642;47.556;18.728;2024-01-27T09:37:28;5.68;;;1.50;;
51248;SDS011;39642;47.556;18.728;2024-01-27T09:39:54;6.25;;;1.40;;
51248;SDS011;39642;47.556;18.728;2024-01-27T09:42:20;5.57;;;1.50;;
51248;SDS011;39642;47.556;18.728;2024-01-27T09:44:48;4.25;;;1.30;;
51248;SDS011;39642;47.556;18.728;2024-01-27T09:47:15;4.85;;;1.40;;
51248;SDS011;39642;47.556;18.728;2024-01-27T09:49:41;7.03;;;1.40;;
51248;SDS011;39642;47.556;18.728;2024-01-27T09:52:08;5.75;;;1.65;;
51248;SDS011;39642;47.556;18.728;2024-01-27T09:54:35;7.30;;;1.55;;
51248;SDS011;39642;47.556;18.728;2024-01-27T09:57:01;6.25;;;1.45;;
51248;SDS011;39642;47.556;18.728;2024-01-27T09:59:28;5.82;;;1.50;;
51248;SDS011;39642;47.556;18.728;2024-01-27T10:01:56;4.62;;;1.30;;
51248;SDS011;39642;47.556;18.728;2024-01-27T10:04:24;5.93;;;1.50;;
51248;SDS011;39642;47.556;18.728;2024-01-27T10:06:50;5.60;;;1.60;;
51248;SDS011;39642;47.556;18.728;2024-01-27T10:09:17;6.10;;;1.35;;
51248;SDS011;39642;47.556;18.728;2024-01-27T10:11:45;5.55;;;1.40;;
51248;SDS011;39642;47.556;18.728;2024-01-27T10:14:13;4.87;;;1.40;;
51248;SDS011;39642;47.556;18.728;2024-01-27T10:16:43;6.32;;;1.70;;
51248;SDS011;39642;47.556;18.728;2024-01-27T10:19:16;5.82;;;1.60;;
51248;SDS011;39642;47.556;18.728;2024-01-27T10:21:45;5.55;;;1.60;;
51248;SDS011;39642;47.556;18.728;2024-01-27T10:24:11;6.72;;;1.80;;
51248;SDS011;39642;47.556;18.728;2024-01-27T10:26:37;5.15;;;1.50;;
51248;SDS011;39642;47.556;18.728;2024-01-27T10:29:03;6.93;;;1.50;;
51248;SDS011;39642;47.556;18.728;2024-01-27T10:31:30;9.40;;;1.80;;
51248;SDS011;39642;47.556;18.728;2024-01-27T10:33:57;7.75;;;1.60;;
51248;SDS011;39642;47.556;18.728;2024-01-27T10:36:24;8.20;;;1.83;;
51248;SDS011;39642;47.556;18.728;2024-01-27T10:38:51;7.80;;;1.70;;
51248;SDS011;39642;47.556;18.728;2024-01-27T10:41:24;9.95;;;1.90;;
51248;SDS011;39642;47.556;18.728;2024-01-27T10:43:51;5.40;;;1.42;;
51248;SDS011;39642;47.556;18.728;2024-01-27T10:46:21;7.00;;;1.60;;
51248;SDS011;39642;47.556;18.728;2024-01-27T10:48:51;7.75;;;1.80;;
51248;SDS011;39642;47.556;18.728;2024-01-27T10:51:30;7.80;;;1.55;;
51248;SDS011;39642;47.556;18.728;2024-01-27T10:54:03;5.53;;;1.60;;
51248;SDS011;39642;47.556;18.728;2024-01-27T10:56:33;8.05;;;1.70;;
51248;SDS011;39642;47.556;18.728;2024-01-27T10:58:59;6.05;;;1.55;;
51248;SDS011;39642;47.556;18.728;2024-01-27T11:01:25;7.60;;;1.70;;
51248;SDS011;39642;47.556;18.728;2024-01-27T11:03:53;10.13;;;1.80;;
51248;SDS011;39642;47.556;18.728;2024-01-27T11:06:21;8.50;;;1.90;;
51248;SDS011;39642;47.556;18.728;2024-01-27T11:08:50;6.82;;;1.77;;
51248;SDS011;39642;47.556;18.728;2024-01-27T11:11:17;8.07;;;1.60;;
51248;SDS011;39642;47.556;18.728;2024-01-27T11:13:44;10.30;;;2.20;;
51248;SDS011;39642;47.556;18.728;2024-01-27T11:16:16;6.55;;;1.80;;
51248;SDS011;39642;47.556;18.728;2024-01-27T11:18:44;6.70;;;1.85;;
51248;SDS011;39642;47.556;18.728;2024-01-27T11:21:14;8.98;;;1.80;;
51248;SDS011;39642;47.556;18.728;2024-01-27T11:26:16;12.20;;;1.73;;
51248;SDS011;39642;47.556;18.728;2024-01-27T11:28:44;9.65;;;1.90;;
51248;SDS011;39642;47.556;18.728;2024-01-27T11:31:10;12.18;;;2.00;;
51248;SDS011;39642;47.556;18.728;2024-01-27T11:33:40;9.00;;;1.73;;
51248;SDS011;39642;47.556;18.728;2024-01-27T11:36:14;9.32;;;1.92;;
51248;SDS011;39642;47.556;18.728;2024-01-27T11:38:45;13.32;;;2.20;;
51248;SDS011;39642;47.556;18.728;2024-01-27T11:41:11;11.25;;;1.98;;
51248;SDS011;39642;47.556;18.728;2024-01-27T11:43:37;8.85;;;1.75;;
51248;SDS011;39642;47.556;18.728;2024-01-27T11:46:03;8.55;;;1.90;;
51248;SDS011;39642;47.556;18.728;2024-01-27T11:48:29;12.95;;;1.87;;
51248;SDS011;39642;47.556;18.728;2024-01-27T11:51:05;8.07;;;1.52;;
51248;SDS011;39642;47.556;18.728;2024-01-27T11:53:33;9.85;;;1.80;;
51248;SDS011;39642;47.556;18.728;2024-01-27T11:55:59;9.30;;;1.90;;
51248;SDS011;39642;47.556;18.728;2024-01-27T11:58:27;11.05;;;2.10;;
51248;SDS011;39642;47.556;18.728;2024-01-27T12:00:53;8.93;;;1.92;;
51248;SDS011;39642;47.556;18.728;2024-01-27T12:03:19;8.75;;;1.67;;
51248;SDS011;39642;47.556;18.728;2024-01-27T12:05:45;7.10;;;1.58;;
51248;SDS011;39642;47.556;18.728;2024-01-27T12:08:11;8.32;;;1.70;;
51248;SDS011;39642;47.556;18.728;2024-01-27T12:10:37;7.55;;;1.83;;
51248;SDS011;39642;47.556;18.728;2024-01-27T12:13:03;7.57;;;1.70;;
51248;SDS011;39642;47.556;18.728;2024-01-27T12:15:29;9.45;;;1.75;;
51248;SDS011;39642;47.556;18.728;2024-01-27T12:17:55;7.60;;;1.98;;
51248;SDS011;39642;47.556;18.728;2024-01-27T12:20:24;6.43;;;1.80;;
51248;SDS011;39642;47.556;18.728;2024-01-27T12:23:01;7.80;;;1.98;;
51248;SDS011;39642;47.556;18.728;2024-01-27T12:25:28;11.05;;;2.20;;
51248;SDS011;39642;47.556;18.728;2024-01-27T12:27:54;8.52;;;1.55;;
51248;SDS011;39642;47.556;18.728;2024-01-27T12:30:21;6.95;;;1.60;;
51248;SDS011;39642;47.556;18.728;2024-01-27T12:32:47;8.88;;;1.85;;
51248;SDS011;39642;47.556;18.728;2024-01-27T12:35:13;8.85;;;1.87;;
51248;SDS011;39642;47.556;18.728;2024-01-27T12:37:39;10.13;;;1.80;;
51248;SDS011;39642;47.556;18.728;2024-01-27T12:40:23;8.70;;;1.62;;
51248;SDS011;39642;47.556;18.728;2024-01-27T12:42:49;7.75;;;1.80;;
51248;SDS011;39642;47.556;18.728;2024-01-27T12:45:15;11.45;;;1.92;;
51248;SDS011;39642;47.556;18.728;2024-01-27T12:47:41;5.85;;;1.65;;
51248;SDS011;39642;47.556;18.728;2024-01-27T12:50:07;7.75;;;2.10;;
51248;SDS011;39642;47.556;18.728;2024-01-27T12:52:34;9.77;;;2.08;;
51248;SDS011;39642;47.556;18.728;2024-01-27T12:55:00;7.62;;;1.60;;
51248;SDS011;39642;47.556;18.728;2024-01-27T12:57:26;8.23;;;1.83;;
51248;SDS011;39642;47.556;18.728;2024-01-27T12:59:51;10.75;;;1.73;;
51248;SDS011;39642;47.556;18.728;2024-01-27T13:02:17;9.40;;;1.92;;
51248;SDS011;39642;47.556;18.728;2024-01-27T13:04:44;9.35;;;2.03;;
51248;SDS011;39642;47.556;18.728;2024-01-27T13:07:15;9.10;;;2.00;;
51248;SDS011;39642;47.556;18.728;2024-01-27T13:09:41;8.93;;;1.77;;
51248;SDS011;39642;47.556;18.728;2024-01-27T13:12:07;7.97;;;1.75;;
51248;SDS011;39642;47.556;18.728;2024-01-27T13:14:33;8.95;;;1.70;;
51248;SDS011;39642;47.556;18.728;2024-01-27T13:16:58;8.18;;;1.80;;
51248;SDS011;39642;47.556;18.728;2024-01-27T13:19:25;6.40;;;1.70;;
51248;SDS011;39642;47.556;18.728;2024-01-27T13:21:53;6.57;;;1.62;;
51248;SDS011;39642;47.556;18.728;2024-01-27T13:24:18;8.20;;;1.70;;
51248;SDS011;39642;47.556;18.728;2024-01-27T13:26:45;5.68;;;1.50;;
51248;SDS011;39642;47.556;18.728;2024-01-27T13:29:13;8.85;;;1.90;;
51248;SDS011;39642;47.556;18.728;2024-01-27T13:31:38;7.03;;;1.80;;
51248;SDS011;39642;47.556;18.728;2024-01-27T13:34:04;6.00;;;1.55;;
51248;SDS011;39642;47.556;18.728;2024-01-27T13:36:30;9.68;;;1.65;;
51248;SDS011;39642;47.556;18.728;2024-01-27T13:38:56;10.73;;;1.77;;
51248;SDS011;39642;47.556;18.728;2024-01-27T13:41:23;8.30;;;1.80;;
51248;SDS011;39642;47.556;18.728;2024-01-27T13:43:49;9.55;;;2.00;;
51248;SDS011;39642;47.556;18.728;2024-01-27T13:46:15;7.68;;;1.70;;
51248;SDS011;39642;47.556;18.728;2024-01-27T13:48:41;6.97;;;1.52;;
51248;SDS011;39642;47.556;18.728;2024-01-27T13:51:07;7.75;;;1.73;;
51248;SDS011;39642;47.556;18.728;2024-01-27T13:53:33;8.38;;;1.70;;
51248;SDS011;39642;47.556;18.728;2024-01-27T13:55:59;9.85;;;1.80;;
51248;SDS011;39642;47.556;18.728;2024-01-27T13:58:26;7.85;;;1.60;;
51248;SDS011;39642;47.556;18.728;2024-01-27T14:00:52;7.20;;;1.80;;
51248;SDS011;39642;47.556;18.728;2024-01-27T14:03:18;9.15;;;2.00;;
51248;SDS011;39642;47.556;18.728;2024-01-27T14:05:43;9.43;;;1.92;;
51248;SDS011;39642;47.556;18.728;2024-01-27T14:08:12;8.15;;;1.92;;
51248;SDS011;39642;47.556;18.728;2024-01-27T14:10:38;6.53;;;1.60;;
51248;SDS011;39642;47.556;18.728;2024-01-27T14:13:05;7.50;;;1.60;;
51248;SDS011;39642;47.556;18.728;2024-01-27T14:15:35;7.28;;;1.73;;
51248;SDS011;39642;47.556;18.728;2024-01-27T14:18:02;9.05;;;1.90;;
51248;SDS011;39642;47.556;18.728;2024-01-27T14:20:29;7.82;;;1.70;;
51248;SDS011;39642;47.556;18.728;2024-01-27T14:22:55;6.07;;;1.62;;
51248;SDS011;39642;47.556;18.728;2024-01-27T14:25:23;11.10;;;1.95;;
51248;SDS011;39642;47.556;18.728;2024-01-27T14:27:49;8.82;;;1.80;;
51248;SDS011;39642;47.556;18.728;2024-01-27T14:30:15;8.77;;;2.20;;
51248;SDS011;39642;47.556;18.728;2024-01-27T14:32:41;9.10;;;1.90;;
51248;SDS011;39642;47.556;18.728;2024-01-27T14:35:07;7.57;;;1.83;;
51248;SDS011;39642;47.556;18.728;2024-01-27T14:37:33;7.65;;;1.80;;
51248;SDS011;39642;47.556;18.728;2024-01-27T14:39:59;6.57;;;1.70;;
51248;SDS011;39642;47.556;18.728;2024-01-27T14:42:25;8.52;;;1.70;;
51248;SDS011;39642;47.556;18.728;2024-01-27T14:44:50;7.05;;;1.85;;